sensor_id;sensor_type;location;lat;lon;timestamp;pressure;altitude;pressure_sealevel;temperature;humidity
63554;BME280;49699;48.072;7.800;2023-05-20T00:00:49;99485.00;;;11.74;70.15
63554;BME280;49699;48.072;7.800;2023-05-20T00:03:15;99486.03;;;11.71;70.26
63554;BME280;49699;48.072;7.800;2023-05-20T00:05:40;99479.06;;;11.72;70.18
63554;BME280;49699;48.072;7.800;2023-05-20T00:08:06;99492.84;;;11.74;70.31
63554;BME280;49699;48.072;7.800;2023-05-20T00:10:33;99487.47;;;11.77;70.20
63554;BME280;49699;48.072;7.800;2023-05-20T00:12:59;99483.84;;;11.79;70.31
63554;BME280;49699;48.072;7.800;2023-05-20T00:15:24;99492.28;;;11.83;70.23
63554;BME280;49699;48.072;7.800;2023-05-20T00:17:50;99483.44;;;11.86;69.80
63554;BME280;49699;48.072;7.800;2023-05-20T00:20:15;99490.25;;;11.88;69.93
63554;BME280;49699;48.072;7.800;2023-05-20T00:22:40;99485.75;;;11.90;69.73
63554;BME280;49699;48.072;7.800;2023-05-20T00:25:06;99486.41;;;11.94;69.78
63554;BME280;49699;48.072;7.800;2023-05-20T00:27:31;99488.00;;;11.96;69.67
63554;BME280;49699;48.072;7.800;2023-05-20T00:29:56;99482.59;;;11.99;69.52
63554;BME280;49699;48.072;7.800;2023-05-20T00:32:22;99481.53;;;12.02;69.40
63554;BME280;49699;48.072;7.800;2023-05-20T00:34:59;99478.84;;;12.03;69.47
63554;BME280;49699;48.072;7.800;2023-05-20T00:37:25;99475.22;;;12.06;69.28
63554;BME280;49699;48.072;7.800;2023-05-20T00:39:51;99474.19;;;12.08;69.20
63554;BME280;49699;48.072;7.800;2023-05-20T00:42:20;99469.72;;;12.10;69.27
63554;BME280;49699;48.072;7.800;2023-05-20T00:44:45;99471.19;;;12.14;69.30
63554;BME280;49699;48.072;7.800;2023-05-20T00:47:10;99466.72;;;12.16;69.06
63554;BME280;49699;48.072;7.800;2023-05-20T00:49:36;99465.78;;;12.18;69.15
63554;BME280;49699;48.072;7.800;2023-05-20T00:52:01;99470.78;;;12.21;69.04
63554;BME280;49699;48.072;7.800;2023-05-20T00:54:27;99454.28;;;12.20;69.03
63554;BME280;49699;48.072;7.800;2023-05-20T00:56:52;99466.41;;;12.21;69.24
63554;BME280;49699;48.072;7.800;2023-05-20T00:59:17;99462.97;;;12.21;69.30
63554;BME280;49699;48.072;7.800;2023-05-20T01:01:42;99453.34;;;12.21;69.25
63554;BME280;49699;48.072;7.800;2023-05-20T01:04:08;99458.56;;;12.21;68.99
63554;BME280;49699;48.072;7.800;2023-05-20T01:06:33;99452.44;;;12.22;68.99
63554;BME280;49699;48.072;7.800;2023-05-20T01:08:58;99449.72;;;12.24;69.05
63554;BME280;49699;48.072;7.800;2023-05-20T01:11:25;99449.72;;;12.24;68.92
63554;BME280;49699;48.072;7.800;2023-05-20T01:13:54;99447.94;;;12.24;68.94
63554;BME280;49699;48.072;7.800;2023-05-20T01:16:21;99440.97;;;12.25;68.95
63554;BME280;49699;48.072;7.800;2023-05-20T01:18:48;99447.75;;;12.27;68.96
63554;BME280;49699;48.072;7.800;2023-05-20T01:21:14;99442.34;;;12.30;68.74
63554;BME280;49699;48.072;7.800;2023-05-20T01:23:41;99443.09;;;12.32;68.80
63554;BME280;49699;48.072;7.800;2023-05-20T01:26:07;99443.00;;;12.34;68.78
63554;BME280;49699;48.072;7.800;2023-05-20T01:28:33;99436.00;;;12.34;68.62
63554;BME280;49699;48.072;7.800;2023-05-20T01:31:00;99432.66;;;12.32;68.74
63554;BME280;49699;48.072;7.800;2023-05-20T01:33:27;99434.41;;;12.32;68.89
63554;BME280;49699;48.072;7.800;2023-05-20T01:35:53;99442.25;;;12.32;68.97
63554;BME280;49699;48.072;7.800;2023-05-20T01:38:19;99439.75;;;12.30;69.04
63554;BME280;49699;48.072;7.800;2023-05-20T01:40:45;99437.97;;;12.31;68.99
63554;BME280;49699;48.072;7.800;2023-05-20T01:43:11;99437.22;;;12.29;69.06
63554;BME280;49699;48.072;7.800;2023-05-20T01:45:40;99431.16;;;12.28;69.06
63554;BME280;49699;48.072;7.800;2023-05-20T01:48:05;99435.53;;;12.28;69.24
63554;BME280;49699;48.072;7.800;2023-05-20T01:50:31;99433.13;;;12.25;69.54
63554;BME280;49699;48.072;7.800;2023-05-20T01:52:56;99429.59;;;12.26;69.41
63554;BME280;49699;48.072;7.800;2023-05-20T01:55:21;99422.59;;;12.26;69.55
63554;BME280;49699;48.072;7.800;2023-05-20T01:57:47;99426.97;;;12.26;69.67
63554;BME280;49699;48.072;7.800;2023-05-20T02:00:12;99424.47;;;12.24;69.65
63554;BME280;49699;48.072;7.800;2023-05-20T02:02:42;99425.31;;;12.25;69.55
63554;BME280;49699;48.072;7.800;2023-05-20T02:05:10;99424.56;;;12.23;69.71
63554;BME280;49699;48.072;7.800;2023-05-20T02:07:35;99420.19;;;12.23;69.68
63554;BME280;49699;48.072;7.800;2023-05-20T02:10:01;99416.63;;;12.24;69.91
63554;BME280;49699;48.072;7.800;2023-05-20T02:12:26;99414.13;;;12.23;69.88
63554;BME280;49699;48.072;7.800;2023-05-20T02:14:52;99414.03;;;12.24;69.68
63554;BME280;49699;48.072;7.800;2023-05-20T02:17:19;99417.38;;;12.26;69.77
63554;BME280;49699;48.072;7.800;2023-05-20T02:19:44;99414.66;;;12.28;69.84
63554;BME280;49699;48.072;7.800;2023-05-20T02:22:10;99409.34;;;12.29;69.77
63554;BME280;49699;48.072;7.800;2023-05-20T02:24:35;99407.59;;;12.30;69.79
63554;BME280;49699;48.072;7.800;2023-05-20T02:27:01;99411.03;;;12.30;69.76
63554;BME280;49699;48.072;7.800;2023-05-20T02:29:28;99412.81;;;12.30;69.65
63554;BME280;49699;48.072;7.800;2023-05-20T02:31:54;99411.88;;;12.31;69.96
63554;BME280;49699;48.072;7.800;2023-05-20T02:34:19;99409.25;;;12.31;69.79
63554;BME280;49699;48.072;7.800;2023-05-20T02:36:45;99415.22;;;12.33;69.80
63554;BME280;49699;48.072;7.800;2023-05-20T02:39:10;99406.47;;;12.34;69.91
63554;BME280;49699;48.072;7.800;2023-05-20T02:41:36;99412.63;;;12.33;70.00
63554;BME280;49699;48.072;7.800;2023-05-20T02:44:01;99407.50;;;12.31;70.15
63554;BME280;49699;48.072;7.800;2023-05-20T02:46:27;99404.13;;;12.29;70.22
63554;BME280;49699;48.072;7.800;2023-05-20T02:48:52;99401.63;;;12.28;70.42
63554;BME280;49699;48.072;7.800;2023-05-20T02:51:17;99409.56;;;12.26;70.60
63554;BME280;49699;48.072;7.800;2023-05-20T02:53:43;99403.59;;;12.24;70.70
63554;BME280;49699;48.072;7.800;2023-05-20T02:56:08;99402.75;;;12.24;70.68
63554;BME280;49699;48.072;7.800;2023-05-20T02:58:35;99400.16;;;12.24;70.79
63554;BME280;49699;48.072;7.800;2023-05-20T03:01:00;99401.81;;;12.25;70.88
63554;BME280;49699;48.072;7.800;2023-05-20T03:03:26;99399.22;;;12.25;70.69
63554;BME280;49699;48.072;7.800;2023-05-20T03:05:51;99391.38;;;12.25;70.76
63554;BME280;49699;48.072;7.800;2023-05-20T03:08:17;99390.63;;;12.23;70.91
63554;BME280;49699;48.072;7.800;2023-05-20T03:10:43;99389.16;;;12.18;71.47
63554;BME280;49699;48.072;7.800;2023-05-20T03:13:08;99395.34;;;12.18;71.42
63554;BME280;49699;48.072;7.800;2023-05-20T03:15:39;99383.34;;;12.15;71.45
63554;BME280;49699;48.072;7.800;2023-05-20T03:18:04;99387.91;;;12.11;71.69
63554;BME280;49699;48.072;7.800;2023-05-20T03:20:31;99389.88;;;12.08;72.13
63554;BME280;49699;48.072;7.800;2023-05-20T03:22:57;99397.97;;;12.03;72.19
63554;BME280;49699;48.072;7.800;2023-05-20T03:25:23;99384.31;;;12.00;72.40
63554;BME280;49699;48.072;7.800;2023-05-20T03:27:48;99389.81;;;11.95;72.55
63554;BME280;49699;48.072;7.800;2023-05-20T03:30:13;99386.56;;;11.92;72.55
63554;BME280;49699;48.072;7.800;2023-05-20T03:32:39;99378.00;;;11.90;72.84
63554;BME280;49699;48.072;7.800;2023-05-20T03:35:05;99378.00;;;11.90;72.82
63554;BME280;49699;48.072;7.800;2023-05-20T03:37:30;99376.53;;;11.86;73.00
63554;BME280;49699;48.072;7.800;2023-05-20T03:39:56;99369.94;;;11.80;73.37
63554;BME280;49699;48.072;7.800;2023-05-20T03:42:21;99372.81;;;11.75;73.43
63554;BME280;49699;48.072;7.800;2023-05-20T03:44:47;99367.22;;;11.67;73.66
63554;BME280;49699;48.072;7.800;2023-05-20T03:47:13;99372.84;;;11.61;74.12
63554;BME280;49699;48.072;7.800;2023-05-20T03:49:38;99377.50;;;11.56;73.94
63554;BME280;49699;48.072;7.800;2023-05-20T03:52:05;99372.56;;;11.52;74.47
63554;BME280;49699;48.072;7.800;2023-05-20T03:54:30;99373.59;;;11.49;74.42
63554;BME280;49699;48.072;7.800;2023-05-20T03:56:56;99371.19;;;11.46;74.63
63554;BME280;49699;48.072;7.800;2023-05-20T03:59:22;99371.47;;;11.41;74.86
63554;BME280;49699;48.072;7.800;2023-05-20T04:01:47;99373.44;;;11.38;75.12
63554;BME280;49699;48.072;7.800;2023-05-20T04:04:12;99376.22;;;11.35;75.33
63554;BME280;49699;48.072;7.800;2023-05-20T04:06:38;99375.38;;;11.34;75.16
63554;BME280;49699;48.072;7.800;2023-05-20T04:09:04;99377.06;;;11.35;75.27
63554;BME280;49699;48.072;7.800;2023-05-20T04:11:30;99373.34;;;11.39;75.12
63554;BME280;49699;48.072;7.800;2023-05-20T04:13:55;99368.88;;;11.41;75.15
63554;BME280;49699;48.072;7.800;2023-05-20T04:16:21;99372.00;;;11.46;74.74
63554;BME280;49699;48.072;7.800;2023-05-20T04:18:47;99378.72;;;11.51;74.72
63554;BME280;49699;48.072;7.800;2023-05-20T04:21:13;99373.22;;;11.55;74.83
63554;BME280;49699;48.072;7.800;2023-05-20T04:23:39;99374.69;;;11.59;74.75
63554;BME280;49699;48.072;7.800;2023-05-20T04:26:04;99377.88;;;11.64;74.70
63554;BME280;49699;48.072;7.800;2023-05-20T04:28:30;99378.50;;;11.68;74.39
63554;BME280;49699;48.072;7.800;2023-05-20T04:30:59;99373.94;;;11.71;74.39
63554;BME280;49699;48.072;7.800;2023-05-20T04:33:27;99372.75;;;11.77;74.38
63554;BME280;49699;48.072;7.800;2023-05-20T04:35:52;99370.69;;;11.82;74.14
63554;BME280;49699;48.072;7.800;2023-05-20T04:38:25;99375.50;;;11.88;74.16
63554;BME280;49699;48.072;7.800;2023-05-20T04:40:54;99371.03;;;11.90;74.18
63554;BME280;49699;48.072;7.800;2023-05-20T04:43:22;99373.44;;;11.93;73.89
63554;BME280;49699;48.072;7.800;2023-05-20T04:45:49;99378.38;;;11.98;74.01
63554;BME280;49699;48.072;7.800;2023-05-20T04:48:14;99372.81;;;12.02;73.84
63554;BME280;49699;48.072;7.800;2023-05-20T04:50:39;99381.19;;;12.07;73.80
63554;BME280;49699;48.072;7.800;2023-05-20T04:53:06;99381.56;;;12.15;73.64
63554;BME280;49699;48.072;7.800;2023-05-20T04:55:32;99383.75;;;12.22;73.41
63554;BME280;49699;48.072;7.800;2023-05-20T04:57:58;99383.25;;;12.29;73.29
63554;BME280;49699;48.072;7.800;2023-05-20T05:00:23;99379.19;;;12.38;73.07
63554;BME280;49699;48.072;7.800;2023-05-20T05:02:49;99376.94;;;12.46;72.83
63554;BME280;49699;48.072;7.800;2023-05-20T05:05:14;99375.47;;;12.55;72.63
63554;BME280;49699;48.072;7.800;2023-05-20T05:07:39;99377.47;;;12.64;72.40
63554;BME280;49699;48.072;7.800;2023-05-20T05:10:05;99376.16;;;12.71;72.15
63554;BME280;49699;48.072;7.800;2023-05-20T05:12:31;99375.59;;;12.78;71.74
63554;BME280;49699;48.072;7.800;2023-05-20T05:14:57;99376.16;;;12.83;72.14
63554;BME280;49699;48.072;7.800;2023-05-20T05:17:23;99374.28;;;12.85;72.08
63554;BME280;49699;48.072;7.800;2023-05-20T05:19:48;99368.94;;;12.87;72.05
63554;BME280;49699;48.072;7.800;2023-05-20T05:22:13;99373.63;;;12.95;72.08
63554;BME280;49699;48.072;7.800;2023-05-20T05:24:38;99362.56;;;13.04;71.75
63554;BME280;49699;48.072;7.800;2023-05-20T05:27:04;99347.06;;;13.13;71.49
63554;BME280;49699;48.072;7.800;2023-05-20T05:29:29;99344.91;;;13.20;71.34
63554;BME280;49699;48.072;7.800;2023-05-20T05:31:55;99336.97;;;13.22;71.29
63554;BME280;49699;48.072;7.800;2023-05-20T05:34:20;99339.38;;;13.25;71.27
63554;BME280;49699;48.072;7.800;2023-05-20T05:36:46;99348.75;;;13.27;71.08
63554;BME280;49699;48.072;7.800;2023-05-20T05:39:11;99349.16;;;13.34;71.10
63554;BME280;49699;48.072;7.800;2023-05-20T05:41:37;99351.84;;;13.45;70.71
63554;BME280;49699;48.072;7.800;2023-05-20T05:44:03;99352.06;;;13.54;70.37
63554;BME280;49699;48.072;7.800;2023-05-20T05:46:28;99339.25;;;13.63;69.96
63554;BME280;49699;48.072;7.800;2023-05-20T05:48:53;99340.28;;;13.73;69.65
63554;BME280;49699;48.072;7.800;2023-05-20T05:51:19;99342.94;;;13.84;69.22
63554;BME280;49699;48.072;7.800;2023-05-20T05:53:46;99344.53;;;13.98;68.86
63554;BME280;49699;48.072;7.800;2023-05-20T05:56:11;99344.09;;;14.04;68.86
63554;BME280;49699;48.072;7.800;2023-05-20T05:58:36;99344.28;;;14.13;68.57
63554;BME280;49699;48.072;7.800;2023-05-20T06:01:04;99341.19;;;14.19;68.27
63554;BME280;49699;48.072;7.800;2023-05-20T06:03:29;99337.19;;;14.27;68.16
63554;BME280;49699;48.072;7.800;2023-05-20T06:05:55;99344.34;;;14.36;67.99
63554;BME280;49699;48.072;7.800;2023-05-20T06:08:20;99340.47;;;14.41;67.73
63554;BME280;49699;48.072;7.800;2023-05-20T06:10:46;99333.56;;;14.40;67.81
63554;BME280;49699;48.072;7.800;2023-05-20T06:13:11;99334.28;;;14.42;67.86
63554;BME280;49699;48.072;7.800;2023-05-20T06:15:38;99331.09;;;14.50;67.55
63554;BME280;49699;48.072;7.800;2023-05-20T06:18:03;99328.84;;;14.56;67.45
63554;BME280;49699;48.072;7.800;2023-05-20T06:20:30;99326.00;;;14.71;67.24
63554;BME280;49699;48.072;7.800;2023-05-20T06:22:55;99324.13;;;14.84;66.62
63554;BME280;49699;48.072;7.800;2023-05-20T06:25:23;99318.16;;;14.93;66.18
63554;BME280;49699;48.072;7.800;2023-05-20T06:27:49;99316.63;;;15.02;65.83
63554;BME280;49699;48.072;7.800;2023-05-20T06:30:17;99322.34;;;15.07;65.78
63554;BME280;49699;48.072;7.800;2023-05-20T06:32:42;99320.81;;;15.15;65.86
63554;BME280;49699;48.072;7.800;2023-05-20T06:35:09;99321.50;;;15.28;65.37
63554;BME280;49699;48.072;7.800;2023-05-20T06:37:34;99310.19;;;15.39;65.16
63554;BME280;49699;48.072;7.800;2023-05-20T06:39:59;99311.81;;;15.51;64.92
63554;BME280;49699;48.072;7.800;2023-05-20T06:42:25;99308.72;;;15.69;64.61
63554;BME280;49699;48.072;7.800;2023-05-20T06:45:01;99303.03;;;15.84;64.02
63554;BME280;49699;48.072;7.800;2023-05-20T06:47:34;99299.63;;;16.05;63.72
63554;BME280;49699;48.072;7.800;2023-05-20T06:50:00;99299.66;;;16.25;63.09
63554;BME280;49699;48.072;7.800;2023-05-20T06:52:26;99289.41;;;16.43;62.40
63554;BME280;49699;48.072;7.800;2023-05-20T06:54:51;99289.78;;;16.59;61.96
63554;BME280;49699;48.072;7.800;2023-05-20T06:57:17;99281.06;;;16.80;61.48
63554;BME280;49699;48.072;7.800;2023-05-20T06:59:42;99284.06;;;17.06;60.76
63554;BME280;49699;48.072;7.800;2023-05-20T07:02:07;99289.00;;;17.29;60.10
63554;BME280;49699;48.072;7.800;2023-05-20T07:04:33;99283.91;;;17.57;59.52
63554;BME280;49699;48.072;7.800;2023-05-20T07:06:58;99279.44;;;17.88;58.13
63554;BME280;49699;48.072;7.800;2023-05-20T07:09:23;99286.34;;;18.08;56.96
63554;BME280;49699;48.072;7.800;2023-05-20T07:11:49;99274.28;;;18.25;56.75
63554;BME280;49699;48.072;7.800;2023-05-20T07:14:15;99281.47;;;18.42;55.93
63554;BME280;49699;48.072;7.800;2023-05-20T07:16:40;99287.69;;;18.41;56.04
63554;BME280;49699;48.072;7.800;2023-05-20T07:19:07;99280.06;;;18.38;56.06
63554;BME280;49699;48.072;7.800;2023-05-20T07:21:32;99279.25;;;18.28;56.20
63554;BME280;49699;48.072;7.800;2023-05-20T07:24:16;99281.88;;;18.28;56.38
63554;BME280;49699;48.072;7.800;2023-05-20T07:26:42;99279.25;;;18.28;56.41
63554;BME280;49699;48.072;7.800;2023-05-20T07:29:08;99279.94;;;18.30;56.18
63554;BME280;49699;48.072;7.800;2023-05-20T07:31:35;99273.44;;;18.24;56.27
63554;BME280;49699;48.072;7.800;2023-05-20T07:34:01;99269.69;;;18.17;56.28
63554;BME280;49699;48.072;7.800;2023-05-20T07:36:47;99274.53;;;18.12;56.36
63554;BME280;49699;48.072;7.800;2023-05-20T07:39:14;99261.97;;;18.06;56.56
63554;BME280;49699;48.072;7.800;2023-05-20T07:41:40;99255.56;;;17.99;56.80
63554;BME280;49699;48.072;7.800;2023-05-20T07:44:06;99248.78;;;17.96;56.95
63554;BME280;49699;48.072;7.800;2023-05-20T07:46:34;99249.22;;;18.01;57.06
63554;BME280;49699;48.072;7.800;2023-05-20T07:49:00;99245.31;;;18.06;56.96
63554;BME280;49699;48.072;7.800;2023-05-20T07:51:25;99243.09;;;18.11;57.02
63554;BME280;49699;48.072;7.800;2023-05-20T07:53:51;99251.81;;;18.11;56.88
63554;BME280;49699;48.072;7.800;2023-05-20T07:56:17;99246.16;;;18.06;57.08
63554;BME280;49699;48.072;7.800;2023-05-20T07:58:42;99246.44;;;18.03;57.22
63554;BME280;49699;48.072;7.800;2023-05-20T08:01:08;99242.41;;;17.99;57.26
63554;BME280;49699;48.072;7.800;2023-05-20T08:03:37;99243.66;;;17.95;57.39
63554;BME280;49699;48.072;7.800;2023-05-20T08:06:07;99249.88;;;17.94;57.41
63554;BME280;49699;48.072;7.800;2023-05-20T08:08:33;99252.97;;;17.89;57.54
63554;BME280;49699;48.072;7.800;2023-05-20T08:11:05;99247.28;;;17.84;57.88
63554;BME280;49699;48.072;7.800;2023-05-20T08:13:31;99239.66;;;17.81;58.03
63554;BME280;49699;48.072;7.800;2023-05-20T08:15:58;99249.63;;;17.78;57.97
63554;BME280;49699;48.072;7.800;2023-05-20T08:18:24;99242.69;;;17.77;58.21
63554;BME280;49699;48.072;7.800;2023-05-20T08:20:49;99246.16;;;17.77;57.96
63554;BME280;49699;48.072;7.800;2023-05-20T08:23:15;99247.94;;;17.77;57.90
63554;BME280;49699;48.072;7.800;2023-05-20T08:25:40;99241.16;;;17.74;57.93
63554;BME280;49699;48.072;7.800;2023-05-20T08:28:07;99250.59;;;17.77;57.83
63554;BME280;49699;48.072;7.800;2023-05-20T08:30:35;99239.78;;;17.80;57.85
63554;BME280;49699;48.072;7.800;2023-05-20T08:33:00;99243.53;;;17.87;57.64
63554;BME280;49699;48.072;7.800;2023-05-20T08:35:27;99243.50;;;17.96;57.34
63554;BME280;49699;48.072;7.800;2023-05-20T08:37:52;99240.47;;;18.01;57.20
63554;BME280;49699;48.072;7.800;2023-05-20T08:40:18;99246.28;;;18.04;57.13
63554;BME280;49699;48.072;7.800;2023-05-20T08:42:44;99255.72;;;18.07;57.10
63554;BME280;49699;48.072;7.800;2023-05-20T08:45:11;99255.41;;;18.10;57.12
63554;BME280;49699;48.072;7.800;2023-05-20T08:47:40;99249.19;;;18.21;56.93
63554;BME280;49699;48.072;7.800;2023-05-20T08:50:06;99245.53;;;18.31;56.70
63554;BME280;49699;48.072;7.800;2023-05-20T08:52:33;99259.56;;;18.42;56.53
63554;BME280;49699;48.072;7.800;2023-05-20T08:54:58;99252.16;;;18.55;56.22
63554;BME280;49699;48.072;7.800;2023-05-20T08:57:24;99258.84;;;18.59;55.94
63554;BME280;49699;48.072;7.800;2023-05-20T08:59:50;99257.28;;;18.56;55.77
63554;BME280;49699;48.072;7.800;2023-05-20T09:02:16;99254.50;;;18.58;55.67
63554;BME280;49699;48.072;7.800;2023-05-20T09:04:41;99255.94;;;18.62;55.55
63554;BME280;49699;48.072;7.800;2023-05-20T09:07:06;99260.06;;;18.64;55.42
63554;BME280;49699;48.072;7.800;2023-05-20T09:09:32;99254.63;;;18.66;55.28
63554;BME280;49699;48.072;7.800;2023-05-20T09:11:58;99248.41;;;18.67;55.26
63554;BME280;49699;48.072;7.800;2023-05-20T09:14:23;99243.94;;;18.67;55.20
63554;BME280;49699;48.072;7.800;2023-05-20T09:16:51;99246.72;;;18.66;55.12
63554;BME280;49699;48.072;7.800;2023-05-20T09:19:16;99249.09;;;18.69;54.99
63554;BME280;49699;48.072;7.800;2023-05-20T09:21:42;99246.16;;;18.72;54.96
63554;BME280;49699;48.072;7.800;2023-05-20T09:24:07;99241.53;;;18.84;54.78
63554;BME280;49699;48.072;7.800;2023-05-20T09:26:33;99238.19;;;18.91;54.48
63554;BME280;49699;48.072;7.800;2023-05-20T09:28:58;99244.69;;;18.97;54.41
63554;BME280;49699;48.072;7.800;2023-05-20T09:31:29;99244.75;;;19.05;54.17
63554;BME280;49699;48.072;7.800;2023-05-20T09:33:55;99239.19;;;19.08;53.98
63554;BME280;49699;48.072;7.800;2023-05-20T09:36:21;99239.34;;;19.06;53.93
63554;BME280;49699;48.072;7.800;2023-05-20T09:38:47;99249.75;;;19.08;53.82
63554;BME280;49699;48.072;7.800;2023-05-20T09:41:17;99243.91;;;19.14;53.59
63554;BME280;49699;48.072;7.800;2023-05-20T09:43:42;99250.91;;;19.23;53.40
63554;BME280;49699;48.072;7.800;2023-05-20T09:46:08;99246.44;;;19.33;53.29
63554;BME280;49699;48.072;7.800;2023-05-20T09:48:34;99240.94;;;19.45;53.15
63554;BME280;49699;48.072;7.800;2023-05-20T09:51:01;99247.31;;;19.52;52.96
63554;BME280;49699;48.072;7.800;2023-05-20T09:53:26;99241.13;;;19.61;52.88
63554;BME280;49699;48.072;7.800;2023-05-20T09:55:53;99243.84;;;19.69;52.35
63554;BME280;49699;48.072;7.800;2023-05-20T09:58:19;99230.56;;;19.79;51.84
63554;BME280;49699;48.072;7.800;2023-05-20T10:00:44;99233.78;;;19.90;51.52
63554;BME280;49699;48.072;7.800;2023-05-20T10:03:10;99228.19;;;19.93;51.37
63554;BME280;49699;48.072;7.800;2023-05-20T10:05:37;99224.59;;;19.94;51.34
63554;BME280;49699;48.072;7.800;2023-05-20T10:08:21;99221.03;;;20.03;51.21
63554;BME280;49699;48.072;7.800;2023-05-20T10:10:54;99214.91;;;20.29;50.51
63554;BME280;49699;48.072;7.800;2023-05-20T10:15:57;99211.19;;;21.50;47.73
63554;BME280;49699;48.072;7.800;2023-05-20T10:18:46;99200.78;;;22.13;46.37
63554;BME280;49699;48.072;7.800;2023-05-20T10:21:14;99196.53;;;22.59;45.19
63554;BME280;49699;48.072;7.800;2023-05-20T10:23:40;99194.31;;;22.87;44.22
63554;BME280;49699;48.072;7.800;2023-05-20T10:26:06;99187.03;;;22.89;43.99
63554;BME280;49699;48.072;7.800;2023-05-20T10:28:33;99197.31;;;22.84;44.14
63554;BME280;49699;48.072;7.800;2023-05-20T10:31:00;99198.19;;;22.68;44.32
63554;BME280;49699;48.072;7.800;2023-05-20T10:33:25;99194.75;;;22.43;44.66
63554;BME280;49699;48.072;7.800;2023-05-20T10:35:52;99194.47;;;22.22;44.94
63554;BME280;49699;48.072;7.800;2023-05-20T10:38:17;99185.53;;;22.23;45.05
63554;BME280;49699;48.072;7.800;2023-05-20T10:40:42;99176.41;;;22.26;44.99
63554;BME280;49699;48.072;7.800;2023-05-20T10:43:08;99184.38;;;22.26;45.01
63554;BME280;49699;48.072;7.800;2023-05-20T10:45:34;99184.38;;;22.26;45.33
63554;BME280;49699;48.072;7.800;2023-05-20T10:48:18;99186.50;;;22.38;44.79
63554;BME280;49699;48.072;7.800;2023-05-20T10:50:44;99183.28;;;22.59;44.27
63554;BME280;49699;48.072;7.800;2023-05-20T10:53:13;99181.94;;;22.71;44.00
63554;BME280;49699;48.072;7.800;2023-05-20T10:55:39;99181.28;;;22.69;44.06
63554;BME280;49699;48.072;7.800;2023-05-20T10:58:05;99179.09;;;22.73;44.17
63554;BME280;49699;48.072;7.800;2023-05-20T11:00:34;99177.75;;;22.85;44.08
63554;BME280;49699;48.072;7.800;2023-05-20T11:03:00;99173.28;;;22.77;43.76
63554;BME280;49699;48.072;7.800;2023-05-20T11:05:26;99176.97;;;22.68;43.72
63554;BME280;49699;48.072;7.800;2023-05-20T11:07:59;99165.13;;;22.87;43.60
63554;BME280;49699;48.072;7.800;2023-05-20T11:10:24;99164.09;;;22.96;43.03
63554;BME280;49699;48.072;7.800;2023-05-20T11:12:50;99174.59;;;22.90;43.09
63554;BME280;49699;48.072;7.800;2023-05-20T11:15:16;99171.75;;;22.91;43.06
63554;BME280;49699;48.072;7.800;2023-05-20T11:17:54;99166.63;;;22.90;43.30
63554;BME280;49699;48.072;7.800;2023-05-20T11:20:23;99171.38;;;23.02;43.05
63554;BME280;49699;48.072;7.800;2023-05-20T11:22:55;99170.31;;;23.11;42.60
63554;BME280;49699;48.072;7.800;2023-05-20T11:25:21;99166.91;;;22.95;42.44
63554;BME280;49699;48.072;7.800;2023-05-20T11:27:49;99163.16;;;22.81;42.62
63554;BME280;49699;48.072;7.800;2023-05-20T11:30:16;99163.63;;;22.93;42.81
63554;BME280;49699;48.072;7.800;2023-05-20T11:33:03;99150.19;;;23.17;42.35
63554;BME280;49699;48.072;7.800;2023-05-20T11:35:28;99151.16;;;23.24;42.20
63554;BME280;49699;48.072;7.800;2023-05-20T11:37:55;99142.13;;;23.33;42.09
63554;BME280;49699;48.072;7.800;2023-05-20T11:40:24;99131.91;;;23.68;41.44
63554;BME280;49699;48.072;7.800;2023-05-20T11:42:56;99134.63;;;23.82;41.27
63554;BME280;49699;48.072;7.800;2023-05-20T11:45:22;99126.19;;;23.79;41.54
63554;BME280;49699;48.072;7.800;2023-05-20T11:48:00;99132.53;;;23.93;41.61
63554;BME280;49699;48.072;7.800;2023-05-20T11:50:26;99117.88;;;23.97;41.07
63554;BME280;49699;48.072;7.800;2023-05-20T11:52:57;99114.59;;;24.09;40.83
63554;BME280;49699;48.072;7.800;2023-05-20T11:55:24;99118.56;;;24.28;40.42
63554;BME280;49699;48.072;7.800;2023-05-20T11:57:50;99115.69;;;24.15;40.61
63554;BME280;49699;48.072;7.800;2023-05-20T12:00:16;99112.03;;;24.16;40.72
63554;BME280;49699;48.072;7.800;2023-05-20T12:02:42;99115.06;;;24.42;39.81
63554;BME280;49699;48.072;7.800;2023-05-20T12:05:09;99112.50;;;24.49;39.90
63554;BME280;49699;48.072;7.800;2023-05-20T12:07:35;99097.19;;;24.51;39.56
63554;BME280;49699;48.072;7.800;2023-05-20T12:10:01;99102.88;;;24.48;39.91
63554;BME280;49699;48.072;7.800;2023-05-20T12:12:27;99114.06;;;24.43;39.97
63554;BME280;49699;48.072;7.800;2023-05-20T12:14:52;99105.53;;;24.48;39.80
63554;BME280;49699;48.072;7.800;2023-05-20T12:17:17;99116.81;;;24.50;39.75
63554;BME280;49699;48.072;7.800;2023-05-20T12:19:43;99113.53;;;24.33;40.25
63554;BME280;49699;48.072;7.800;2023-05-20T12:22:08;99115.63;;;24.38;39.54
63554;BME280;49699;48.072;7.800;2023-05-20T12:24:33;99098.22;;;24.35;39.53
63554;BME280;49699;48.072;7.800;2023-05-20T12:26:59;99089.31;;;24.28;39.81
63554;BME280;49699;48.072;7.800;2023-05-20T12:29:24;99083.91;;;24.51;39.56
63554;BME280;49699;48.072;7.800;2023-05-20T12:31:49;99092.84;;;24.65;39.18
63554;BME280;49699;48.072;7.800;2023-05-20T12:34:15;99082.50;;;24.55;39.48
63554;BME280;49699;48.072;7.800;2023-05-20T12:36:40;99079.66;;;24.42;39.52
63554;BME280;49699;48.072;7.800;2023-05-20T12:39:06;99077.38;;;24.24;39.89
63554;BME280;49699;48.072;7.800;2023-05-20T12:41:31;99068.03;;;24.28;40.07
63554;BME280;49699;48.072;7.800;2023-05-20T12:43:57;99071.88;;;24.40;39.78
63554;BME280;49699;48.072;7.800;2023-05-20T12:46:22;99075.78;;;24.59;39.64
63554;BME280;49699;48.072;7.800;2023-05-20T12:48:47;99067.75;;;24.88;39.10
63554;BME280;49699;48.072;7.800;2023-05-20T12:51:13;99066.06;;;25.23;38.63
63554;BME280;49699;48.072;7.800;2023-05-20T12:53:38;99053.53;;;25.45;38.27
63554;BME280;49699;48.072;7.800;2023-05-20T12:56:03;99054.16;;;25.47;38.08
63554;BME280;49699;48.072;7.800;2023-05-20T12:58:29;99057.81;;;25.40;38.28